sensor_id;sensor_type;location;lat;lon;timestamp;P1;durP1;ratioP1;P2;durP2;ratioP2
3726;SDS011;1879;45.876;12.300;2023-11-19T00:00:30;17.50;;;15.67;;
3726;SDS011;1879;45.876;12.300;2023-11-19T00:02:59;17.40;;;15.70;;
3726;SDS011;1879;45.876;12.300;2023-11-19T00:05:26;17.33;;;15.70;;
3726;SDS011;1879;45.876;12.300;2023-11-19T00:07:54;18.37;;;16.47;;
3726;SDS011;1879;45.876;12.300;2023-11-19T00:10:21;17.60;;;16.00;;
3726;SDS011;1879;45.876;12.300;2023-11-19T00:12:48;18.50;;;16.70;;
3726;SDS011;1879;45.876;12.300;2023-11-19T00:15:17;17.57;;;15.87;;
3726;SDS011;1879;45.876;12.300;2023-11-19T00:17:45;17.27;;;15.67;;
3726;SDS011;1879;45.876;12.300;2023-11-19T00:20:14;17.87;;;16.27;;
3726;SDS011;1879;45.876;12.300;2023-11-19T00:22:42;16.80;;;15.10;;
3726;SDS011;1879;45.876;12.300;2023-11-19T00:25:11;17.27;;;15.67;;
3726;SDS011;1879;45.876;12.300;2023-11-19T00:27:38;17.40;;;15.70;;
3726;SDS011;1879;45.876;12.300;2023-11-19T00:30:05;18.77;;;16.80;;
3726;SDS011;1879;45.876;12.300;2023-11-19T00:32:34;18.70;;;17.00;;
3726;SDS011;1879;45.876;12.300;2023-11-19T00:35:01;17.87;;;16.07;;
3726;SDS011;1879;45.876;12.300;2023-11-19T00:37:30;18.07;;;16.27;;
3726;SDS011;1879;45.876;12.300;2023-11-19T00:39:57;18.97;;;17.23;;
3726;SDS011;1879;45.876;12.300;2023-11-19T00:42:24;19.57;;;16.30;;
3726;SDS011;1879;45.876;12.300;2023-11-19T00:44:51;18.03;;;16.13;;
3726;SDS011;1879;45.876;12.300;2023-11-19T00:47:19;18.70;;;16.97;;
3726;SDS011;1879;45.876;12.300;2023-11-19T00:49:46;18.30;;;16.43;;
3726;SDS011;1879;45.876;12.300;2023-11-19T00:52:15;18.30;;;16.60;;
3726;SDS011;1879;45.876;12.300;2023-11-19T00:54:42;19.67;;;17.57;;
3726;SDS011;1879;45.876;12.300;2023-11-19T00:57:09;19.20;;;17.40;;
3726;SDS011;1879;45.876;12.300;2023-11-19T00:59:36;20.03;;;18.17;;
3726;SDS011;1879;45.876;12.300;2023-11-19T01:02:03;20.43;;;18.33;;
3726;SDS011;1879;45.876;12.300;2023-11-19T01:04:33;20.07;;;18.17;;
3726;SDS011;1879;45.876;12.300;2023-11-19T01:07:01;20.70;;;18.60;;
3726;SDS011;1879;45.876;12.300;2023-11-19T01:09:30;20.20;;;18.20;;
3726;SDS011;1879;45.876;12.300;2023-11-19T01:12:01;19.73;;;18.00;;
3726;SDS011;1879;45.876;12.300;2023-11-19T01:14:28;20.77;;;18.97;;
3726;SDS011;1879;45.876;12.300;2023-11-19T01:16:55;20.90;;;18.90;;
3726;SDS011;1879;45.876;12.300;2023-11-19T01:19:23;19.57;;;17.67;;
3726;SDS011;1879;45.876;12.300;2023-11-19T01:21:50;21.40;;;19.30;;
3726;SDS011;1879;45.876;12.300;2023-11-19T01:24:17;20.33;;;18.23;;
3726;SDS011;1879;45.876;12.300;2023-11-19T01:26:44;20.33;;;18.43;;
3726;SDS011;1879;45.876;12.300;2023-11-19T01:29:13;20.00;;;18.20;;
3726;SDS011;1879;45.876;12.300;2023-11-19T01:31:41;20.10;;;18.10;;
3726;SDS011;1879;45.876;12.300;2023-11-19T01:34:08;20.87;;;18.77;;
3726;SDS011;1879;45.876;12.300;2023-11-19T01:36:35;21.03;;;19.20;;
3726;SDS011;1879;45.876;12.300;2023-11-19T01:39:02;19.93;;;18.10;;
3726;SDS011;1879;45.876;12.300;2023-11-19T01:41:33;21.60;;;19.40;;
3726;SDS011;1879;45.876;12.300;2023-11-19T01:44:01;20.00;;;18.20;;
3726;SDS011;1879;45.876;12.300;2023-11-19T01:46:30;19.80;;;18.10;;
3726;SDS011;1879;45.876;12.300;2023-11-19T01:48:58;20.17;;;18.17;;
3726;SDS011;1879;45.876;12.300;2023-11-19T01:51:26;20.37;;;18.43;;
3726;SDS011;1879;45.876;12.300;2023-11-19T01:53:53;19.70;;;17.77;;
3726;SDS011;1879;45.876;12.300;2023-11-19T01:56:22;20.43;;;18.33;;
3726;SDS011;1879;45.876;12.300;2023-11-19T01:58:50;19.17;;;17.27;;
3726;SDS011;1879;45.876;12.300;2023-11-19T02:01:18;18.53;;;16.63;;
3726;SDS011;1879;45.876;12.300;2023-11-19T02:03:46;19.03;;;17.13;;
3726;SDS011;1879;45.876;12.300;2023-11-19T02:06:13;19.47;;;17.57;;
3726;SDS011;1879;45.876;12.300;2023-11-19T02:08:41;16.80;;;15.30;;
3726;SDS011;1879;45.876;12.300;2023-11-19T02:11:09;16.23;;;14.73;;
3726;SDS011;1879;45.876;12.300;2023-11-19T02:13:37;16.57;;;14.97;;
3726;SDS011;1879;45.876;12.300;2023-11-19T02:16:06;16.03;;;14.43;;
3726;SDS011;1879;45.876;12.300;2023-11-19T02:18:34;16.40;;;15.00;;
3726;SDS011;1879;45.876;12.300;2023-11-19T02:21:03;18.23;;;16.53;;
3726;SDS011;1879;45.876;12.300;2023-11-19T02:23:30;16.27;;;14.80;;
3726;SDS011;1879;45.876;12.300;2023-11-19T02:26:02;15.23;;;13.93;;
3726;SDS011;1879;45.876;12.300;2023-11-19T02:28:35;15.47;;;14.10;;
3726;SDS011;1879;45.876;12.300;2023-11-19T02:31:03;14.43;;;13.10;;
3726;SDS011;1879;45.876;12.300;2023-11-19T02:33:34;14.60;;;13.30;;
3726;SDS011;1879;45.876;12.300;2023-11-19T02:36:01;14.93;;;13.63;;
3726;SDS011;1879;45.876;12.300;2023-11-19T02:38:29;15.20;;;13.80;;
3726;SDS011;1879;45.876;12.300;2023-11-19T02:40:56;14.30;;;12.80;;
3726;SDS011;1879;45.876;12.300;2023-11-19T02:43:24;12.40;;;11.30;;
3726;SDS011;1879;45.876;12.300;2023-11-19T02:45:52;13.70;;;12.60;;
3726;SDS011;1879;45.876;12.300;2023-11-19T02:48:20;14.23;;;12.77;;
3726;SDS011;1879;45.876;12.300;2023-11-19T02:50:47;12.27;;;11.13;;
3726;SDS011;1879;45.876;12.300;2023-11-19T02:53:14;14.53;;;11.57;;
3726;SDS011;1879;45.876;12.300;2023-11-19T02:55:42;14.70;;;12.33;;
3726;SDS011;1879;45.876;12.300;2023-11-19T02:58:13;14.20;;;12.80;;
3726;SDS011;1879;45.876;12.300;2023-11-19T03:00:48;12.83;;;11.63;;
3726;SDS011;1879;45.876;12.300;2023-11-19T03:03:23;12.03;;;10.87;;
3726;SDS011;1879;45.876;12.300;2023-11-19T03:05:54;11.53;;;10.40;;
3726;SDS011;1879;45.876;12.300;2023-11-19T03:08:21;10.47;;;9.57;;
3726;SDS011;1879;45.876;12.300;2023-11-19T03:10:48;13.47;;;11.10;;
3726;SDS011;1879;45.876;12.300;2023-11-19T03:13:15;11.57;;;10.37;;
3726;SDS011;1879;45.876;12.300;2023-11-19T03:15:43;10.70;;;9.73;;
3726;SDS011;1879;45.876;12.300;2023-11-19T03:18:11;12.00;;;10.87;;
3726;SDS011;1879;45.876;12.300;2023-11-19T03:20:39;12.77;;;11.53;;
3726;SDS011;1879;45.876;12.300;2023-11-19T03:23:06;11.50;;;10.43;;
3726;SDS011;1879;45.876;12.300;2023-11-19T03:25:33;11.23;;;10.23;;
3726;SDS011;1879;45.876;12.300;2023-11-19T03:28:01;11.50;;;10.40;;
3726;SDS011;1879;45.876;12.300;2023-11-19T03:30:29;10.83;;;9.57;;
3726;SDS011;1879;45.876;12.300;2023-11-19T03:32:56;12.33;;;11.23;;
3726;SDS011;1879;45.876;12.300;2023-11-19T03:35:24;11.17;;;10.27;;
3726;SDS011;1879;45.876;12.300;2023-11-19T03:37:54;11.47;;;9.53;;
3726;SDS011;1879;45.876;12.300;2023-11-19T03:40:21;10.63;;;9.53;;
3726;SDS011;1879;45.876;12.300;2023-11-19T03:42:50;11.30;;;10.30;;
3726;SDS011;1879;45.876;12.300;2023-11-19T03:45:17;10.83;;;9.73;;
3726;SDS011;1879;45.876;12.300;2023-11-19T03:47:44;11.23;;;8.83;;
3726;SDS011;1879;45.876;12.300;2023-11-19T03:50:11;10.43;;;9.53;;
3726;SDS011;1879;45.876;12.300;2023-11-19T03:52:40;13.37;;;9.63;;
3726;SDS011;1879;45.876;12.300;2023-11-19T03:55:08;10.40;;;9.40;;
3726;SDS011;1879;45.876;12.300;2023-11-19T03:57:37;8.43;;;7.63;;
3726;SDS011;1879;45.876;12.300;2023-11-19T04:00:04;10.00;;;9.00;;
3726;SDS011;1879;45.876;12.300;2023-11-19T04:02:34;9.03;;;8.20;;
3726;SDS011;1879;45.876;12.300;2023-11-19T04:05:02;9.13;;;8.33;;
3726;SDS011;1879;45.876;12.300;2023-11-19T04:07:30;9.03;;;8.23;;
3726;SDS011;1879;45.876;12.300;2023-11-19T04:09:57;9.03;;;8.23;;
3726;SDS011;1879;45.876;12.300;2023-11-19T04:12:26;9.50;;;8.57;;
3726;SDS011;1879;45.876;12.300;2023-11-19T04:14:53;9.57;;;8.73;;
3726;SDS011;1879;45.876;12.300;2023-11-19T04:17:21;9.20;;;8.40;;
3726;SDS011;1879;45.876;12.300;2023-11-19T04:19:48;8.43;;;7.73;;
3726;SDS011;1879;45.876;12.300;2023-11-19T04:22:15;9.27;;;8.40;;
3726;SDS011;1879;45.876;12.300;2023-11-19T04:24:42;9.17;;;8.37;;
3726;SDS011;1879;45.876;12.300;2023-11-19T04:27:10;8.43;;;7.63;;
3726;SDS011;1879;45.876;12.300;2023-11-19T04:29:39;9.57;;;8.67;;
3726;SDS011;1879;45.876;12.300;2023-11-19T04:32:06;9.40;;;8.50;;
3726;SDS011;1879;45.876;12.300;2023-11-19T04:34:33;9.60;;;8.70;;
3726;SDS011;1879;45.876;12.300;2023-11-19T04:37:00;9.33;;;8.40;;
3726;SDS011;1879;45.876;12.300;2023-11-19T04:39:28;8.90;;;8.20;;
3726;SDS011;1879;45.876;12.300;2023-11-19T04:41:55;10.17;;;8.43;;
3726;SDS011;1879;45.876;12.300;2023-11-19T04:44:22;8.60;;;7.90;;
3726;SDS011;1879;45.876;12.300;2023-11-19T04:46:51;8.63;;;7.80;;
3726;SDS011;1879;45.876;12.300;2023-11-19T04:49:18;10.23;;;9.07;;
3726;SDS011;1879;45.876;12.300;2023-11-19T04:51:45;9.30;;;8.50;;
3726;SDS011;1879;45.876;12.300;2023-11-19T04:54:13;8.70;;;7.80;;
3726;SDS011;1879;45.876;12.300;2023-11-19T04:56:40;9.87;;;8.90;;
3726;SDS011;1879;45.876;12.300;2023-11-19T04:59:11;9.13;;;8.23;;
3726;SDS011;1879;45.876;12.300;2023-11-19T05:01:38;8.13;;;7.53;;
3726;SDS011;1879;45.876;12.300;2023-11-19T05:04:06;8.63;;;7.80;;
3726;SDS011;1879;45.876;12.300;2023-11-19T05:06:33;7.97;;;7.20;;
3726;SDS011;1879;45.876;12.300;2023-11-19T05:09:01;8.03;;;7.23;;
3726;SDS011;1879;45.876;12.300;2023-11-19T05:11:30;8.13;;;7.37;;
3726;SDS011;1879;45.876;12.300;2023-11-19T05:13:57;7.80;;;7.13;;
3726;SDS011;1879;45.876;12.300;2023-11-19T05:16:24;8.03;;;7.23;;
3726;SDS011;1879;45.876;12.300;2023-11-19T05:18:51;8.53;;;7.73;;
3726;SDS011;1879;45.876;12.300;2023-11-19T05:21:19;8.53;;;7.60;;
3726;SDS011;1879;45.876;12.300;2023-11-19T05:23:46;9.07;;;8.17;;
3726;SDS011;1879;45.876;12.300;2023-11-19T05:26:17;8.17;;;7.47;;
3726;SDS011;1879;45.876;12.300;2023-11-19T05:28:46;9.13;;;7.60;;
3726;SDS011;1879;45.876;12.300;2023-11-19T05:31:14;7.27;;;6.67;;
3726;SDS011;1879;45.876;12.300;2023-11-19T05:33:42;11.23;;;7.13;;
3726;SDS011;1879;45.876;12.300;2023-11-19T05:36:10;8.30;;;7.47;;
3726;SDS011;1879;45.876;12.300;2023-11-19T05:38:39;7.27;;;6.67;;
3726;SDS011;1879;45.876;12.300;2023-11-19T05:41:06;7.80;;;7.03;;
3726;SDS011;1879;45.876;12.300;2023-11-19T05:43:33;8.93;;;8.23;;
3726;SDS011;1879;45.876;12.300;2023-11-19T05:46:00;9.30;;;8.37;;
3726;SDS011;1879;45.876;12.300;2023-11-19T05:48:27;10.23;;;9.20;;
3726;SDS011;1879;45.876;12.300;2023-11-19T05:50:54;9.50;;;8.60;;
3726;SDS011;1879;45.876;12.300;2023-11-19T05:53:21;9.63;;;8.73;;
3726;SDS011;1879;45.876;12.300;2023-11-19T05:55:51;10.63;;;9.53;;
3726;SDS011;1879;45.876;12.300;2023-11-19T05:58:23;10.87;;;9.97;;
3726;SDS011;1879;45.876;12.300;2023-11-19T06:00:53;12.20;;;11.10;;
3726;SDS011;1879;45.876;12.300;2023-11-19T06:03:20;13.00;;;11.90;;
3726;SDS011;1879;45.876;12.300;2023-11-19T06:05:47;12.77;;;11.57;;
3726;SDS011;1879;45.876;12.300;2023-11-19T06:08:15;10.20;;;9.30;;
3726;SDS011;1879;45.876;12.300;2023-11-19T06:10:42;13.30;;;10.43;;
3726;SDS011;1879;45.876;12.300;2023-11-19T06:13:12;10.70;;;9.70;;
3726;SDS011;1879;45.876;12.300;2023-11-19T06:15:40;10.33;;;9.33;;
3726;SDS011;1879;45.876;12.300;2023-11-19T06:18:07;10.30;;;9.37;;
3726;SDS011;1879;45.876;12.300;2023-11-19T06:20:35;15.37;;;14.17;;
3726;SDS011;1879;45.876;12.300;2023-11-19T06:23:02;12.13;;;10.97;;
3726;SDS011;1879;45.876;12.300;2023-11-19T06:25:29;9.97;;;9.07;;
3726;SDS011;1879;45.876;12.300;2023-11-19T06:27:56;8.63;;;7.90;;
3726;SDS011;1879;45.876;12.300;2023-11-19T06:30:24;10.20;;;9.30;;
3726;SDS011;1879;45.876;12.300;2023-11-19T06:32:53;24.30;;;22.37;;
3726;SDS011;1879;45.876;12.300;2023-11-19T06:35:20;10.80;;;9.80;;
3726;SDS011;1879;45.876;12.300;2023-11-19T06:37:47;10.17;;;9.17;;
3726;SDS011;1879;45.876;12.300;2023-11-19T06:40:14;9.73;;;8.73;;
3726;SDS011;1879;45.876;12.300;2023-11-19T06:42:41;10.87;;;9.83;;
3726;SDS011;1879;45.876;12.300;2023-11-19T06:45:08;10.23;;;9.40;;
3726;SDS011;1879;45.876;12.300;2023-11-19T06:47:37;10.73;;;9.77;;
3726;SDS011;1879;45.876;12.300;2023-11-19T06:50:04;12.97;;;11.80;;
3726;SDS011;1879;45.876;12.300;2023-11-19T06:52:32;11.70;;;10.70;;
3726;SDS011;1879;45.876;12.300;2023-11-19T06:54:59;12.70;;;11.60;;
3726;SDS011;1879;45.876;12.300;2023-11-19T06:57:26;11.20;;;10.20;;
3726;SDS011;1879;45.876;12.300;2023-11-19T06:59:54;13.43;;;12.10;;
3726;SDS011;1879;45.876;12.300;2023-11-19T07:02:21;13.53;;;12.23;;
3726;SDS011;1879;45.876;12.300;2023-11-19T07:04:50;15.30;;;13.90;;
3726;SDS011;1879;45.876;12.300;2023-11-19T07:07:19;18.33;;;16.63;;
3726;SDS011;1879;45.876;12.300;2023-11-19T07:09:46;15.70;;;14.33;;
3726;SDS011;1879;45.876;12.300;2023-11-19T07:12:13;15.10;;;13.60;;
3726;SDS011;1879;45.876;12.300;2023-11-19T07:14:40;15.10;;;13.77;;
3726;SDS011;1879;45.876;12.300;2023-11-19T07:17:08;13.37;;;12.17;;
3726;SDS011;1879;45.876;12.300;2023-11-19T07:19:35;11.30;;;10.40;;
3726;SDS011;1879;45.876;12.300;2023-11-19T07:22:04;11.90;;;10.63;;
3726;SDS011;1879;45.876;12.300;2023-11-19T07:24:32;11.07;;;10.00;;
3726;SDS011;1879;45.876;12.300;2023-11-19T07:26:59;11.60;;;10.60;;
3726;SDS011;1879;45.876;12.300;2023-11-19T07:29:29;10.50;;;9.40;;
3726;SDS011;1879;45.876;12.300;2023-11-19T07:31:56;11.25;;;9.65;;
3726;SDS011;1879;45.876;12.300;2023-11-19T07:34:23;11.90;;;10.70;;
3726;SDS011;1879;45.876;12.300;2023-11-19T07:36:51;12.70;;;11.40;;
3726;SDS011;1879;45.876;12.300;2023-11-19T07:39:19;12.87;;;11.60;;
3726;SDS011;1879;45.876;12.300;2023-11-19T07:41:47;11.97;;;10.87;;
3726;SDS011;1879;45.876;12.300;2023-11-19T07:44:14;11.67;;;10.53;;
3726;SDS011;1879;45.876;12.300;2023-11-19T07:46:41;10.43;;;9.33;;
3726;SDS011;1879;45.876;12.300;2023-11-19T07:49:11;11.33;;;10.23;;
3726;SDS011;1879;45.876;12.300;2023-11-19T07:51:38;16.57;;;14.27;;
3726;SDS011;1879;45.876;12.300;2023-11-19T07:54:05;16.50;;;12.20;;
3726;SDS011;1879;45.876;12.300;2023-11-19T07:56:34;12.67;;;11.00;;
3726;SDS011;1879;45.876;12.300;2023-11-19T07:59:01;13.00;;;11.77;;
3726;SDS011;1879;45.876;12.300;2023-11-19T08:01:28;14.40;;;13.00;;
3726;SDS011;1879;45.876;12.300;2023-11-19T08:03:55;15.53;;;13.90;;
3726;SDS011;1879;45.876;12.300;2023-11-19T08:06:22;15.37;;;13.97;;
3726;SDS011;1879;45.876;12.300;2023-11-19T08:08:49;17.10;;;14.33;;
3726;SDS011;1879;45.876;12.300;2023-11-19T08:11:17;15.00;;;13.30;;
3726;SDS011;1879;45.876;12.300;2023-11-19T08:13:46;14.90;;;13.27;;
3726;SDS011;1879;45.876;12.300;2023-11-19T08:16:13;15.13;;;13.57;;
3726;SDS011;1879;45.876;12.300;2023-11-19T08:18:41;15.20;;;13.70;;
3726;SDS011;1879;45.876;12.300;2023-11-19T08:21:09;13.90;;;12.70;;
3726;SDS011;1879;45.876;12.300;2023-11-19T08:23:39;15.33;;;12.23;;
3726;SDS011;1879;45.876;12.300;2023-11-19T08:26:06;12.20;;;11.10;;
3726;SDS011;1879;45.876;12.300;2023-11-19T08:28:33;12.60;;;11.30;;
3726;SDS011;1879;45.876;12.300;2023-11-19T08:31:02;12.50;;;11.00;;
3726;SDS011;1879;45.876;12.300;2023-11-19T08:33:30;13.50;;;10.70;;
3726;SDS011;1879;45.876;12.300;2023-11-19T08:35:57;12.10;;;10.90;;
3726;SDS011;1879;45.876;12.300;2023-11-19T08:38:25;13.63;;;12.23;;
3726;SDS011;1879;45.876;12.300;2023-11-19T08:40:52;19.10;;;15.40;;
3726;SDS011;1879;45.876;12.300;2023-11-19T08:43:24;17.60;;;15.40;;
3726;SDS011;1879;45.876;12.300;2023-11-19T08:45:51;14.73;;;13.30;;
3726;SDS011;1879;45.876;12.300;2023-11-19T08:48:19;12.50;;;11.40;;
3726;SDS011;1879;45.876;12.300;2023-11-19T08:50:46;11.47;;;10.40;;
3726;SDS011;1879;45.876;12.300;2023-11-19T08:53:13;11.77;;;10.67;;
3726;SDS011;1879;45.876;12.300;2023-11-19T08:55:40;11.93;;;10.83;;
3726;SDS011;1879;45.876;12.300;2023-11-19T08:58:08;10.90;;;8.80;;
3726;SDS011;1879;45.876;12.300;2023-11-19T09:00:35;9.50;;;8.50;;
3726;SDS011;1879;45.876;12.300;2023-11-19T09:03:02;10.17;;;9.20;;
3726;SDS011;1879;45.876;12.300;2023-11-19T09:05:30;11.43;;;10.20;;
3726;SDS011;1879;45.876;12.300;2023-11-19T09:07:57;16.03;;;12.80;;
3726;SDS011;1879;45.876;12.300;2023-11-19T09:10:24;11.50;;;10.40;;
3726;SDS011;1879;45.876;12.300;2023-11-19T09:12:52;13.23;;;11.67;;
3726;SDS011;1879;45.876;12.300;2023-11-19T09:15:19;10.90;;;9.37;;
3726;SDS011;1879;45.876;12.300;2023-11-19T09:17:46;12.10;;;9.90;;
3726;SDS011;1879;45.876;12.300;2023-11-19T09:20:13;9.73;;;8.83;;
3726;SDS011;1879;45.876;12.300;2023-11-19T09:22:42;8.37;;;7.20;;
3726;SDS011;1879;45.876;12.300;2023-11-19T09:25:09;7.30;;;6.60;;
3726;SDS011;1879;45.876;12.300;2023-11-19T09:27:35;7.23;;;6.53;;
3726;SDS011;1879;45.876;12.300;2023-11-19T09:30:03;6.07;;;5.57;;
3726;SDS011;1879;45.876;12.300;2023-11-19T09:32:30;7.67;;;7.07;;
3726;SDS011;1879;45.876;12.300;2023-11-19T09:34:57;7.20;;;6.50;;
3726;SDS011;1879;45.876;12.300;2023-11-19T09:37:25;8.60;;;6.63;;
3726;SDS011;1879;45.876;12.300;2023-11-19T09:39:54;7.47;;;6.77;;
3726;SDS011;1879;45.876;12.300;2023-11-19T09:42:21;7.87;;;7.10;;
3726;SDS011;1879;45.876;12.300;2023-11-19T09:44:50;6.20;;;5.60;;
3726;SDS011;1879;45.876;12.300;2023-11-19T09:47:18;7.27;;;6.33;;
3726;SDS011;1879;45.876;12.300;2023-11-19T09:49:46;8.13;;;7.43;;
3726;SDS011;1879;45.876;12.300;2023-11-19T09:52:14;9.07;;;7.57;;
3726;SDS011;1879;45.876;12.300;2023-11-19T09:54:41;6.60;;;6.00;;
3726;SDS011;1879;45.876;12.300;2023-11-19T09:57:09;7.80;;;6.37;;
3726;SDS011;1879;45.876;12.300;2023-11-19T09:59:40;7.60;;;6.57;;
3726;SDS011;1879;45.876;12.300;2023-11-19T10:02:07;9.83;;;8.17;;
3726;SDS011;1879;45.876;12.300;2023-11-19T10:04:34;8.63;;;7.83;;
3726;SDS011;1879;45.876;12.300;2023-11-19T10:07:03;11.40;;;8.73;;
3726;SDS011;1879;45.876;12.300;2023-11-19T10:09:30;8.43;;;7.63;;
3726;SDS011;1879;45.876;12.300;2023-11-19T10:11:57;5.40;;;4.90;;
3726;SDS011;1879;45.876;12.300;2023-11-19T10:14:26;5.37;;;4.83;;
3726;SDS011;1879;45.876;12.300;2023-11-19T10:16:54;6.80;;;4.60;;
3726;SDS011;1879;45.876;12.300;2023-11-19T10:19:22;6.10;;;4.80;;
3726;SDS011;1879;45.876;12.300;2023-11-19T10:21:49;5.70;;;4.53;;
3726;SDS011;1879;45.876;12.300;2023-11-19T10:24:16;4.83;;;4.30;;
3726;SDS011;1879;45.876;12.300;2023-11-19T10:26:57;11.13;;;9.67;;
3726;SDS011;1879;45.876;12.300;2023-11-19T10:29:25;6.33;;;5.13;;
3726;SDS011;1879;45.876;12.300;2023-11-19T10:31:57;5.20;;;4.60;;
3726;SDS011;1879;45.876;12.300;2023-11-19T10:34:25;8.00;;;5.40;;
3726;SDS011;1879;45.876;12.300;2023-11-19T10:36:52;5.97;;;5.37;;
3726;SDS011;1879;45.876;12.300;2023-11-19T10:39:19;5.20;;;4.80;;
3726;SDS011;1879;45.876;12.300;2023-11-19T10:41:48;5.93;;;5.03;;
3726;SDS011;1879;45.876;12.300;2023-11-19T10:47:10;6.33;;;5.53;;
3726;SDS011;1879;45.876;12.300;2023-11-19T10:49:42;5.83;;;5.03;;
3726;SDS011;1879;45.876;12.300;2023-11-19T10:52:11;5.13;;;4.73;;
3726;SDS011;1879;45.876;12.300;2023-11-19T10:54:41;5.30;;;4.80;;
3726;SDS011;1879;45.876;12.300;2023-11-19T10:57:13;5.90;;;5.30;;
3726;SDS011;1879;45.876;12.300;2023-11-19T10:59:46;5.43;;;4.93;;
3726;SDS011;1879;45.876;12.300;2023-11-19T11:02:18;6.40;;;5.80;;
3726;SDS011;1879;45.876;12.300;2023-11-19T11:04:50;6.63;;;6.03;;
3726;SDS011;1879;45.876;12.300;2023-11-19T11:07:19;7.20;;;6.60;;
3726;SDS011;1879;45.876;12.300;2023-11-19T11:09:51;6.83;;;6.23;;
3726;SDS011;1879;45.876;12.300;2023-11-19T11:12:19;7.30;;;6.70;;
3726;SDS011;1879;45.876;12.300;2023-11-19T11:14:49;6.60;;;6.10;;
3726;SDS011;1879;45.876;12.300;2023-11-19T11:17:17;7.07;;;6.47;;
3726;SDS011;1879;45.876;12.300;2023-11-19T11:19:46;6.60;;;6.10;;
3726;SDS011;1879;45.876;12.300;2023-11-19T11:22:13;7.07;;;6.47;;
3726;SDS011;1879;45.876;12.300;2023-11-19T11:24:59;7.20;;;6.50;;
3726;SDS011;1879;45.876;12.300;2023-11-19T11:27:49;7.43;;;6.73;;
3726;SDS011;1879;45.876;12.300;2023-11-19T11:30:31;7.27;;;6.57;;
3726;SDS011;1879;45.876;12.300;2023-11-19T11:33:06;6.80;;;6.30;;
3726;SDS011;1879;45.876;12.300;2023-11-19T11:35:48;7.37;;;6.67;;
3726;SDS011;1879;45.876;12.300;2023-11-19T11:38:21;7.33;;;6.67;;
3726;SDS011;1879;45.876;12.300;2023-11-19T11:43:49;7.20;;;6.70;;
3726;SDS011;1879;45.876;12.300;2023-11-19T11:49:28;7.57;;;6.97;;
3726;SDS011;1879;45.876;12.300;2023-11-19T11:52:02;7.47;;;6.87;;
3726;SDS011;1879;45.876;12.300;2023-11-19T11:54:30;6.97;;;6.37;;
3726;SDS011;1879;45.876;12.300;2023-11-19T11:57:01;7.80;;;7.10;;
3726;SDS011;1879;45.876;12.300;2023-11-19T11:59:34;7.20;;;6.50;;
3726;SDS011;1879;45.876;12.300;2023-11-19T12:02:03;7.77;;;7.07;;
3726;SDS011;1879;45.876;12.300;2023-11-19T12:04:35;8.20;;;6.60;;
3726;SDS011;1879;45.876;12.300;2023-11-19T12:07:03;8.07;;;7.37;;
3726;SDS011;1879;45.876;12.300;2023-11-19T12:09:31;7.97;;;7.03;;
3726;SDS011;1879;45.876;12.300;2023-11-19T12:12:07;8.73;;;7.83;;
3726;SDS011;1879;45.876;12.300;2023-11-19T12:17:36;8.97;;;8.00;;
3726;SDS011;1879;45.876;12.300;2023-11-19T12:20:11;8.07;;;7.40;;
3726;SDS011;1879;45.876;12.300;2023-11-19T12:22:38;8.87;;;8.07;;
3726;SDS011;1879;45.876;12.300;2023-11-19T12:25:06;9.00;;;8.20;;
3726;SDS011;1879;45.876;12.300;2023-11-19T12:27:35;9.10;;;8.20;;
3726;SDS011;1879;45.876;12.300;2023-11-19T12:30:02;9.50;;;8.50;;
3726;SDS011;1879;45.876;12.300;2023-11-19T12:32:37;9.37;;;8.40;;
3726;SDS011;1879;45.876;12.300;2023-11-19T12:35:05;9.43;;;8.57;;
3726;SDS011;1879;45.876;12.300;2023-11-19T12:37:39;12.37;;;10.30;;
3726;SDS011;1879;45.876;12.300;2023-11-19T12:40:11;12.30;;;9.90;;
3726;SDS011;1879;45.876;12.300;2023-11-19T12:42:40;11.97;;;10.87;;
3726;SDS011;1879;45.876;12.300;2023-11-19T12:45:07;11.07;;;9.97;;
3726;SDS011;1879;45.876;12.300;2023-11-19T12:47:36;11.57;;;10.47;;
3726;SDS011;1879;45.876;12.300;2023-11-19T12:50:03;11.97;;;10.90;;
3726;SDS011;1879;45.876;12.300;2023-11-19T12:52:31;11.33;;;10.23;;
3726;SDS011;1879;45.876;12.300;2023-11-19T12:55:00;12.23;;;11.13;;
3726;SDS011;1879;45.876;12.300;2023-11-19T12:57:37;13.00;;;11.83;;
3726;SDS011;1879;45.876;12.300;2023-11-19T13:00:05;12.67;;;11.47;;
3726;SDS011;1879;45.876;12.300;2023-11-19T13:02:45;12.53;;;11.47;;
3726;SDS011;1879;45.876;12.300;2023-11-19T13:05:20;15.13;;;13.47;;
3726;SDS011;1879;45.876;12.300;2023-11-19T13:07:48;12.87;;;11.57;;
3726;SDS011;1879;45.876;12.300;2023-11-19T13:10:17;14.20;;;11.50;;
3726;SDS011;1879;45.876;12.300;2023-11-19T13:12:43;12.67;;;11.47;;
3726;SDS011;1879;45.876;12.300;2023-11-19T13:15:25;13.37;;;10.47;;
3726;SDS011;1879;45.876;12.300;2023-11-19T13:17:52;12.70;;;11.50;;
3726;SDS011;1879;45.876;12.300;2023-11-19T13:20:19;11.60;;;10.60;;
3726;SDS011;1879;45.876;12.300;2023-11-19T13:22:53;12.40;;;11.17;;
3726;SDS011;1879;45.876;12.300;2023-11-19T13:25:22;11.90;;;10.73;;
3726;SDS011;1879;45.876;12.300;2023-11-19T13:27:50;11.90;;;10.80;;
3726;SDS011;1879;45.876;12.300;2023-11-19T13:30:17;14.97;;;10.97;;
3726;SDS011;1879;45.876;12.300;2023-11-19T13:32:44;13.03;;;11.80;;
3726;SDS011;1879;45.876;12.300;2023-11-19T13:35:11;12.80;;;11.70;;
3726;SDS011;1879;45.876;12.300;2023-11-19T13:37:38;13.57;;;11.77;;
3726;SDS011;1879;45.876;12.300;2023-11-19T13:40:06;12.43;;;11.17;;
3726;SDS011;1879;45.876;12.300;2023-11-19T13:42:36;13.10;;;11.90;;
3726;SDS011;1879;45.876;12.300;2023-11-19T13:45:06;12.70;;;11.70;;
3726;SDS011;1879;45.876;12.300;2023-11-19T13:47:36;12.30;;;11.30;;
3726;SDS011;1879;45.876;12.300;2023-11-19T13:50:06;13.00;;;11.90;;
3726;SDS011;1879;45.876;12.300;2023-11-19T13:52:34;13.83;;;12.27;;
3726;SDS011;1879;45.876;12.300;2023-11-19T13:55:03;13.07;;;11.77;;
3726;SDS011;1879;45.876;12.300;2023-11-19T13:57:32;11.47;;;10.37;;
3726;SDS011;1879;45.876;12.300;2023-11-19T14:00:01;12.00;;;10.90;;
3726;SDS011;1879;45.876;12.300;2023-11-19T14:02:30;12.00;;;11.00;;
3726;SDS011;1879;45.876;12.300;2023-11-19T14:04:56;11.90;;;10.90;;
3726;SDS011;1879;45.876;12.300;2023-11-19T14:07:23;15.10;;;11.60;;
3726;SDS011;1879;45.876;12.300;2023-11-19T14:09:50;12.77;;;11.67;;
3726;SDS011;1879;45.876;12.300;2023-11-19T14:12:18;12.70;;;11.33;;
3726;SDS011;1879;45.876;12.300;2023-11-19T14:14:45;12.00;;;10.90;;
3726;SDS011;1879;45.876;12.300;2023-11-19T14:17:13;14.63;;;13.23;;
3726;SDS011;1879;45.876;12.300;2023-11-19T14:19:40;16.80;;;14.03;;
3726;SDS011;1879;45.876;12.300;2023-11-19T14:22:07;13.67;;;12.37;;
3726;SDS011;1879;45.876;12.300;2023-11-19T14:24:35;13.87;;;12.57;;
3726;SDS011;1879;45.876;12.300;2023-11-19T14:27:02;13.50;;;12.20;;
3726;SDS011;1879;45.876;12.300;2023-11-19T14:29:29;13.40;;;12.20;;
3726;SDS011;1879;45.876;12.300;2023-11-19T14:31:56;14.13;;;12.73;;
3726;SDS011;1879;45.876;12.300;2023-11-19T14:34:25;14.57;;;13.17;;
3726;SDS011;1879;45.876;12.300;2023-11-19T14:36:52;14.40;;;11.87;;
3726;SDS011;1879;45.876;12.300;2023-11-19T14:39:19;13.20;;;11.53;;
3726;SDS011;1879;45.876;12.300;2023-11-19T14:41:46;14.30;;;12.80;;
3726;SDS011;1879;45.876;12.300;2023-11-19T14:44:14;18.97;;;16.90;;
3726;SDS011;1879;45.876;12.300;2023-11-19T14:46:41;24.10;;;18.60;;
3726;SDS011;1879;45.876;12.300;2023-11-19T14:49:09;22.30;;;20.10;;
3726;SDS011;1879;45.876;12.300;2023-11-19T14:51:37;22.77;;;20.57;;
3726;SDS011;1879;45.876;12.300;2023-11-19T14:54:04;23.70;;;21.17;;
3726;SDS011;1879;45.876;12.300;2023-11-19T14:56:32;22.50;;;20.40;;
3726;SDS011;1879;45.876;12.300;2023-11-19T14:58:59;23.90;;;21.70;;
3726;SDS011;1879;45.876;12.300;2023-11-19T15:01:26;24.63;;;22.13;;
3726;SDS011;1879;45.876;12.300;2023-11-19T15:03:53;26.23;;;23.63;;